kh6hz-w1 Rehoboth MA US current weather conditions

sailwx.info

Wind from 113 at 3 knots gusting 3

Air temperature 33.3° C
Dewpoint 23.6° C

Last reported at 2020-Aug-10 19:00 UTC.
Time now 2020-Aug-10 19:25 UTC

Location: N 41°55' W 071°13'.
View on Google Maps.

See reports from other nearby stations

  
Tides and Currents Weather Stations Pressure Air Temp Water Temp Dewpoint Dewpoint Depression Visibility Wind Speed Wind Dir Waves Ship Positions
date/time (UTC)wind fromknots sea level pressurealtimeterstation pressurevisibilityair tempwater tempwave heightnotes
2020-Aug-10 19:10 090 4 gusting 4 33.3
2020-Aug-10 19:05 180 6 gusting 6 33.3
2020-Aug-10 19:00 113 3 gusting 3 33.3
2020-Aug-10 18:55 225 4 gusting 6 33.9
2020-Aug-10 18:50 113 4 gusting 6 33.9
2020-Aug-10 18:45 225 3 gusting 8 34.4
2020-Aug-10 18:40 225 6 gusting 6 34.4
2020-Aug-10 18:35 270 6 gusting 6 34.4
2020-Aug-10 18:30 225 4 gusting 5 34.4
2020-Aug-10 18:25 203 3 gusting 5 33.9
2020-Aug-10 18:20 045 3 gusting 3 33.3
2020-Aug-10 18:15 203 3 gusting 4 32.2
2020-Aug-10 18:10 248 4 gusting 4 32.2
2020-Aug-10 18:05 225 3 gusting 4 32.2
2020-Aug-10 18:00 113 0 gusting 1 32.2
2020-Aug-10 17:55 225 5 gusting 6 33.3
2020-Aug-10 17:50 203 3 gusting 3 32.2
2020-Aug-10 17:45 225 6 gusting 6 32.2
2020-Aug-10 17:40 270 6 gusting 6 32.8
2020-Aug-10 17:35 270 6 gusting 6 33.9
2020-Aug-10 17:30 203 2 gusting 3 32.8
2020-Aug-10 17:25 270 3 gusting 4 33.3
2020-Aug-10 17:20 293 3 gusting 4 33.3
2020-Aug-10 17:15 248 4 gusting 7 34.4
2020-Aug-10 17:10 248 4 gusting 4 33.9
2020-Aug-10 17:05 248 5 gusting 5 32.8
2020-Aug-10 17:00 203 2 gusting 3 32.8
2020-Aug-10 16:55 203 4 gusting 4 33.3
2020-Aug-10 16:50 225 6 gusting 6 32.2
2020-Aug-10 16:45 090 4 gusting 6 33.3
2020-Aug-10 16:40 248 1 gusting 3 33.3
2020-Aug-10 16:35 225 2 gusting 2 33.3
2020-Aug-10 16:30 248 4 gusting 4 32.8
2020-Aug-10 16:25 248 6 gusting 6 33.3
2020-Aug-10 16:20 248 6 gusting 6 32.8
2020-Aug-10 16:15 225 4 gusting 4 32.8
2020-Aug-10 16:10 248 1 gusting 1 33.3
2020-Aug-10 16:05 225 3 gusting 3 33.3
2020-Aug-10 16:00 248 3 gusting 3 32.8
2020-Aug-10 15:55 33.9
2020-Aug-10 15:50 225 1 gusting 2 32.8
2020-Aug-10 15:45 045 32.8
2020-Aug-10 15:40 225 2 gusting 2 32.8
2020-Aug-10 15:35 225 6 gusting 9 32.8
2020-Aug-10 15:30 135 2 gusting 2 32.2
2020-Aug-10 15:25 225 2 gusting 2 32.8
2020-Aug-10 15:20 248 4 gusting 4 32.2
2020-Aug-10 15:15 203 1 gusting 4 32.2
2020-Aug-10 15:10 225 6 gusting 6 32.2
2020-Aug-10 15:05 270 3 gusting 3 31.7
2020-Aug-10 15:00 225 5 gusting 6 32.2
2020-Aug-10 14:55 270 0 gusting 1 31.7
2020-Aug-10 14:50 270 4 gusting 5 32.2
2020-Aug-10 14:45 203 3 gusting 3 31.7
2020-Aug-10 14:40 135 0 gusting 1 31.1
2020-Aug-10 14:35 180 3 gusting 5 30.6
2020-Aug-10 14:30 225 3 gusting 5 30.6
2020-Aug-10 14:25 270 5 gusting 5 31.1
2020-Aug-10 14:20 248 4 gusting 4 30.6
2020-Aug-10 14:15 158 2 gusting 3 31.1
2020-Aug-10 14:10 090 3 gusting 3 30.6
2020-Aug-10 14:05 338 0 gusting 1 30.0
2020-Aug-10 14:00 113 0 gusting 0 30.0
2020-Aug-10 13:55 248 29.4
2020-Aug-10 13:50 090 2 gusting 2 29.4
2020-Aug-10 13:45 225 2 gusting 3 28.9
2020-Aug-10 13:40 248 0 gusting 3 29.4
2020-Aug-10 13:35 270 0 gusting 1 28.9
2020-Aug-10 13:30 045 2 gusting 4 28.9
2020-Aug-10 13:25 225 2 gusting 2 28.9
2020-Aug-10 13:05 135 1 gusting 3 27.8
2020-Aug-10 13:00 270 2 gusting 3 27.8
2020-Aug-10 12:55 225 4 gusting 4 27.2
2020-Aug-10 12:50 248 2 gusting 4 27.2
2020-Aug-10 12:45 225 5 gusting 5 26.7
2020-Aug-10 12:40 203 2 gusting 2 26.7
2020-Aug-10 12:35 248 2 gusting 2 26.1
2020-Aug-10 12:30 248 4 gusting 4 26.1
2020-Aug-10 12:25 180 2 gusting 2 25.6
2020-Aug-10 12:20 135 0 gusting 0 25.0
2020-Aug-10 12:15 203 1 gusting 3 25.0
2020-Aug-10 12:10 248 4 gusting 4 24.4
2020-Aug-10 12:05 225 3 gusting 3 24.4
2020-Aug-10 12:00 225 3 gusting 3 23.9
2020-Aug-10 11:55 225 1 gusting 2 23.9
2020-Aug-10 11:50 203 3 gusting 3 23.3
2020-Aug-10 11:45 248 1 gusting 1 23.3
2020-Aug-10 11:40 248 2 gusting 2 22.8
2020-Aug-10 11:35 225 2 gusting 2 22.8
2020-Aug-10 11:30 158 2 gusting 3 22.8
2020-Aug-10 11:25 203 1 gusting 1 22.8
2020-Aug-10 11:20 180 0 gusting 1 22.2
2020-Aug-10 11:15 248 0 gusting 1 22.2
2020-Aug-10 11:10 225 2 gusting 2 22.2
2020-Aug-10 11:05 270 2 gusting 2 21.7
2020-Aug-10 11:00 203 1 gusting 2 21.7
2020-Aug-10 10:55 135 21.7
2020-Aug-10 10:50 248 2 gusting 2 21.7
2020-Aug-10 10:45 270 0 gusting 1 21.1
2020-Aug-10 10:40 225 1 gusting 1 21.1
2020-Aug-10 10:35 270 2 gusting 2 21.1
2020-Aug-10 10:30 180 1 gusting 1 21.1
2020-Aug-10 10:25 180 21.1
2020-Aug-10 10:20 338 1 gusting 1 20.6
2020-Aug-10 10:15 203 1 gusting 1 20.6
2020-Aug-10 10:10 203 1 gusting 1 20.6
2020-Aug-10 10:05 158 20.6
2020-Aug-10 10:00 270 20.6
2020-Aug-10 09:55 225 3 gusting 3 20.6
2020-Aug-10 09:50 180 20.6
2020-Aug-10 09:45 248 1 gusting 1 20.6
2020-Aug-10 09:40 225 20.6
2020-Aug-10 09:35 180 1 gusting 1 20.6
2020-Aug-10 09:30 158 20.6
2020-Aug-10 09:25 248 20.6
2020-Aug-10 09:20 180 0 gusting 0 20.6
2020-Aug-10 09:15 180 0 gusting 0 20.6
2020-Aug-10 09:10 248 20.6
2020-Aug-10 09:05 248 0 gusting 0 20.6
2020-Aug-10 09:00 203 20.6
2020-Aug-10 08:55 203 20.6
2020-Aug-10 08:50 203 1 gusting 1 20.6
2020-Aug-10 08:45 180 0 gusting 0 20.6
2020-Aug-10 08:40 158 20.6
2020-Aug-10 08:35 180 1 gusting 1 20.6
2020-Aug-10 08:30 203 1 gusting 1 20.6
2020-Aug-10 08:25 248 1 gusting 1 21.1
2020-Aug-10 08:20 293 0 gusting 0 21.1
2020-Aug-10 08:15 270 1 gusting 1 21.1
2020-Aug-10 08:10 158 21.1
2020-Aug-10 08:05 158 21.1
2020-Aug-10 08:00 203 1 gusting 2 21.1
2020-Aug-10 07:55 225 1 gusting 1 21.1
2020-Aug-10 07:50 135 21.1
2020-Aug-10 07:45 203 1 gusting 1 21.1
2020-Aug-10 07:40 225 1 gusting 1 21.1
2020-Aug-10 07:35 135 1 gusting 1 21.1
2020-Aug-10 07:30 180 0 gusting 0 21.1
2020-Aug-10 07:25 203 21.1
2020-Aug-10 07:15 180 0 gusting 0 21.1
2020-Aug-10 07:10 180 21.1
2020-Aug-10 07:05 270 21.1
2020-Aug-10 07:00 225 0 gusting 0 21.1
2020-Aug-10 06:55 225 21.1
2020-Aug-10 06:50 113 21.1
2020-Aug-10 06:45 225 1 gusting 1 21.1
2020-Aug-10 06:40 203 1 gusting 1 21.1
2020-Aug-10 06:35 270 0 gusting 0 21.1
2020-Aug-10 06:30 203 21.1
2020-Aug-10 06:25 158 21.1
2020-Aug-10 06:20 113 21.1
2020-Aug-10 06:15 203 2 gusting 3 21.1
2020-Aug-10 06:10 203 1 gusting 1 21.1
2020-Aug-10 06:05 225 2 gusting 2 21.1
2020-Aug-10 06:00 180 21.1
2020-Aug-10 05:55 203 0 gusting 1 21.1
2020-Aug-10 05:50 270 1 gusting 1 21.1
2020-Aug-10 05:45 225 2 gusting 3 21.1
2020-Aug-10 05:40 203 3 gusting 3 21.1
2020-Aug-10 05:35 180 21.1
2020-Aug-10 05:30 180 1 gusting 1 21.1
2020-Aug-10 05:25 113 21.7
2020-Aug-10 05:20 248 21.7
2020-Aug-10 05:15 248 21.7
2020-Aug-10 05:10 180 21.7
2020-Aug-10 05:05 225 3 gusting 3 21.7
2020-Aug-10 05:00 180 0 gusting 1 21.7
2020-Aug-10 04:55 158 2 gusting 2 21.7
2020-Aug-10 04:50 225 0 gusting 0 21.7
2020-Aug-10 04:45 248 2 gusting 2 21.7
2020-Aug-10 04:40 203 1 gusting 2 21.7
2020-Aug-10 04:35 225 2 gusting 3 21.7
2020-Aug-10 04:30 180 3 gusting 3 21.7
2020-Aug-10 04:25 180 2 gusting 2 21.7
2020-Aug-10 04:20 248 2 gusting 2 21.7
2020-Aug-10 04:15 180 1 gusting 3 21.7
2020-Aug-10 04:10 203 2 gusting 2 21.7
2020-Aug-10 04:05 180 1 gusting 1 21.7
2020-Aug-10 04:00 225 0 gusting 0 21.7
2020-Aug-10 03:55 203 1 gusting 1 21.7
2020-Aug-10 03:50 135 2 gusting 3 21.7
2020-Aug-10 03:45 248 2 gusting 2 21.7
2020-Aug-10 03:40 225 1 gusting 1 21.7
2020-Aug-10 03:35 203 1 gusting 2 21.7
2020-Aug-10 03:30 225 1 gusting 1 21.7
2020-Aug-10 03:25 113 2 gusting 2 22.2
2020-Aug-10 03:20 270 1 gusting 3 22.2
2020-Aug-10 03:15 180 2 gusting 2 22.2
2020-Aug-10 03:10 203 2 gusting 4 22.2
2020-Aug-10 03:05 270 1 gusting 1 22.2
2020-Aug-10 03:00 225 2 gusting 3 22.2
2020-Aug-10 02:55 180 1 gusting 1 22.2
2020-Aug-10 02:50 203 2 gusting 2 22.2
2020-Aug-10 02:45 203 4 gusting 4 22.2
2020-Aug-10 02:40 225 4 gusting 4 22.2
2020-Aug-10 02:35 180 1 gusting 1 22.2
2020-Aug-10 02:30 180 2 gusting 2 22.8
2020-Aug-10 02:25 203 2 gusting 3 22.8
2020-Aug-10 02:20 135 1 gusting 1 22.8
2020-Aug-10 02:15 248 1 gusting 3 22.8
2020-Aug-10 02:10 045 1 gusting 4 22.8
2020-Aug-10 02:05 225 2 gusting 2 22.8
2020-Aug-10 02:00 225 2 gusting 2 22.8
2020-Aug-10 01:55 225 0 gusting 1 22.8
2020-Aug-10 01:50 135 3 gusting 3 22.8
2020-Aug-10 01:45 270 3 gusting 5 22.8
2020-Aug-10 01:40 158 1 gusting 2 22.8
2020-Aug-10 01:35 225 4 gusting 4 23.3
2020-Aug-10 01:30 203 3 gusting 3 23.3
2020-Aug-10 01:25 225 5 gusting 5 23.3
2020-Aug-10 01:20 270 0 gusting 0 23.3
2020-Aug-10 01:15 113 1 gusting 3 23.3
2020-Aug-10 01:10 180 2 gusting 2 23.3
2020-Aug-10 01:05 023 1 gusting 2 23.3
2020-Aug-10 01:00 090 1 gusting 4 23.3
2020-Aug-10 00:30 158 1 gusting 5 23.9
2020-Aug-10 00:25 248 2 gusting 2 23.9
2020-Aug-10 00:20 158 1 gusting 3 24.4
2020-Aug-10 00:15 180 3 gusting 3 24.4
2020-Aug-10 00:10 248 1 gusting 1 24.4
2020-Aug-10 00:05 315 1 gusting 4 24.4
2020-Aug-10 00:00 203 1 gusting 2 24.4
2020-Aug-09 23:55 090 1 gusting 2 25.0
2020-Aug-09 23:50 248 1 gusting 2 25.0
2020-Aug-09 23:45 248 7 gusting 7 25.0
2020-Aug-09 23:40 113 2 gusting 6 25.6
2020-Aug-09 23:35 270 5 gusting 6 25.6
2020-Aug-09 23:30 113 4 gusting 5 25.6
2020-Aug-09 23:25 203 5 gusting 5 26.1
2020-Aug-09 23:20 180 3 gusting 3 26.1
2020-Aug-09 23:10 158 3 gusting 5 26.1
2020-Aug-09 23:05 225 7 gusting 7 26.7
2020-Aug-09 23:00 203 2 gusting 4 26.7
2020-Aug-09 22:55 113 6 gusting 6 26.7
2020-Aug-09 22:50 158 3 gusting 3 26.7
2020-Aug-09 22:45 225 2 gusting 4 26.7
2020-Aug-09 22:40 180 3 gusting 3 26.7
2020-Aug-09 22:35 158 1 gusting 7 27.2
2020-Aug-09 22:30 158 3 gusting 6 27.2
2020-Aug-09 22:25 315 2 gusting 2 27.8
2020-Aug-09 22:20 180 3 gusting 4 27.8
2020-Aug-09 22:15 090 1 gusting 4 27.8
2020-Aug-09 22:10 203 7 gusting 7 27.8
2020-Aug-09 22:05 225 1 gusting 4 28.3
2020-Aug-09 22:00 315 1 gusting 3 27.8
2020-Aug-09 21:55 180 6 gusting 6 28.3
2020-Aug-09 21:50 135 2 gusting 4 28.3
2020-Aug-09 21:45 203 5 gusting 5 28.3
2020-Aug-09 21:40 270 7 gusting 7 28.9
2020-Aug-09 21:35 203 6 gusting 8 28.3
2020-Aug-09 21:30 203 7 gusting 7 28.3
2020-Aug-09 21:25 045 5 gusting 7 27.8
2020-Aug-09 21:20 203 1 gusting 5 27.8
2020-Aug-09 21:15 158 6 gusting 6 28.3
2020-Aug-09 21:10 135 3 gusting 6 28.9
2020-Aug-09 21:05 135 2 gusting 5 28.9
2020-Aug-09 21:00 270 3 gusting 3 28.9
2020-Aug-09 20:55 135 1 gusting 2 28.9
2020-Aug-09 20:50 338 3 gusting 4 28.9
2020-Aug-09 20:45 090 6 gusting 9 28.9
2020-Aug-09 20:40 113 3 gusting 13 28.9
2020-Aug-09 20:35 180 8 gusting 8 29.4
2020-Aug-09 20:30 158 5 gusting 10 29.4
2020-Aug-09 20:25 158 3 gusting 5 30.0
2020-Aug-09 20:20 225 2 gusting 6 30.0
2020-Aug-09 20:15 248 3 gusting 5 30.6
2020-Aug-09 20:10 135 7 gusting 7 30.6
2020-Aug-09 20:05 203 7 gusting 7 30.6
2020-Aug-09 20:00 270 3 gusting 4 30.6
2020-Aug-09 19:55 270 6 gusting 6 31.1
2020-Aug-09 19:50 180 1 gusting 1 30.6
2020-Aug-09 19:45 113 4 gusting 4 30.6
2020-Aug-09 19:40 023 4 gusting 6 30.6
2020-Aug-09 19:35 180 4 gusting 4 30.6
2020-Aug-09 19:30 023 1 gusting 3 30.6
2020-Aug-09 19:25 113 10 gusting 10 31.1
2020-Aug-09 19:20 203 4 gusting 4 30.6
2020-Aug-09 19:15 203 2 gusting 7 31.1
2020-Aug-09 19:10 293 2 gusting 6 31.1
2020-Aug-09 19:05 270 0 gusting 3 31.1
2020-Aug-09 19:00 090 7 gusting 7 31.7
2020-Aug-09 18:55 248 10 gusting 10 32.2
2020-Aug-09 18:50 225 5 gusting 5 31.7
2020-Aug-09 18:45 203 8 gusting 8 31.7
2020-Aug-09 18:40 203 9 gusting 9 32.2
2020-Aug-09 18:35 158 7 gusting 7 32.8
2020-Aug-09 18:30 180 4 gusting 7 32.2
2020-Aug-09 18:25 270 1 gusting 6 31.7
2020-Aug-09 18:20 270 5 gusting 7 31.7
2020-Aug-09 18:15 203 6 gusting 6 31.1
2020-Aug-09 18:10 270 6 gusting 6 31.1
2020-Aug-09 18:05 248 4 gusting 5 30.6
2020-Aug-09 18:00 180 5 gusting 5 31.7
2020-Aug-09 17:55 248 6 gusting 6 31.7
2020-Aug-09 17:50 270 6 gusting 6 32.2
2020-Aug-09 17:45 31.1
2020-Aug-09 17:40 180 6 gusting 6 32.2
2020-Aug-09 17:35 135 3 gusting 6 32.2
2020-Aug-09 17:30 32.2
2020-Aug-09 17:25 203 2 gusting 3 32.2
2020-Aug-09 17:20 225 4 gusting 5 32.2
2020-Aug-09 17:15 180 2 gusting 3 31.1
2020-Aug-09 17:10 135 6 gusting 8 31.1
2020-Aug-09 17:05 225 3 gusting 3 30.6
2020-Aug-09 16:55 135 3 gusting 3 30.6
2020-Aug-09 16:50 225 3 gusting 3 30.0
2020-Aug-09 16:45 203 4 gusting 4 30.0
2020-Aug-09 16:40 203 4 gusting 5 30.0
2020-Aug-09 16:35 203 3 gusting 8 30.0
2020-Aug-09 16:30 248 6 gusting 6 30.6
2020-Aug-09 16:25 023 4 gusting 4 31.1
2020-Aug-09 16:20 113 1 gusting 2 30.6
2020-Aug-09 16:15 248 6 gusting 6 31.7
2020-Aug-09 16:10 180 7 gusting 7 31.7
2020-Aug-09 16:05 225 3 gusting 5 31.1
2020-Aug-09 16:00 248 5 gusting 5 30.6
2020-Aug-09 15:55 270 0 gusting 4 30.6
2020-Aug-09 15:50 248 3 gusting 3 30.6
2020-Aug-09 15:45 023 3 gusting 5 30.6
2020-Aug-09 15:40 338 1 gusting 2 30.6
2020-Aug-09 15:35 203 6 gusting 7 30.6
2020-Aug-09 15:30 203 6 gusting 6 30.6
2020-Aug-09 15:25 225 3 gusting 3 30.6
2020-Aug-09 15:20 270 4 gusting 5 30.6
2020-Aug-09 15:15 225 3 gusting 4 30.6
2020-Aug-09 15:10 180 6 gusting 6 30.0
2020-Aug-09 15:05 180 4 gusting 4 29.4
2020-Aug-09 15:00 158 3 gusting 3 30.0
2020-Aug-09 14:55 225 4 gusting 6 29.4
2020-Aug-09 14:50 225 6 gusting 6 29.4
2020-Aug-09 14:45 113 1 gusting 2 29.4
2020-Aug-09 14:40 158 1 gusting 2 28.9
2020-Aug-09 14:35 225 2 gusting 2 28.9
2020-Aug-09 14:30 270 2 gusting 2 28.9
2020-Aug-09 14:25 225 2 gusting 3 28.9
2020-Aug-09 14:20 293 1 gusting 3 28.3
2020-Aug-09 14:15 225 5 gusting 6 27.8
2020-Aug-09 14:10 248 2 gusting 3 27.8
2020-Aug-09 14:05 248 2 gusting 4 27.8
2020-Aug-09 14:00 203 4 gusting 5 27.8
2020-Aug-09 13:55 225 3 gusting 3 27.2
2020-Aug-09 13:50 225 6 gusting 6 27.8
2020-Aug-09 13:45 315 0 gusting 2 26.7
2020-Aug-09 13:40 158 0 gusting 2 26.7
2020-Aug-09 13:35 270 2 gusting 2 26.1
2020-Aug-09 13:30 225 2 gusting 3 26.1
2020-Aug-09 13:25 225 3 gusting 4 25.6
2020-Aug-09 13:20 270 4 gusting 4 26.1
2020-Aug-09 13:15 248 1 gusting 1 25.6
2020-Aug-09 13:10 270 2 gusting 4 25.0
2020-Aug-09 13:05 248 5 gusting 5 25.0
2020-Aug-09 13:00 180 4 gusting 4 24.4
2020-Aug-09 12:55 225 3 gusting 5 24.4
2020-Aug-09 12:50 225 3 gusting 3 24.4
2020-Aug-09 12:45 248 3 gusting 3 23.9
2020-Aug-09 12:40 203 1 gusting 3 23.9
2020-Aug-09 12:35 158 2 gusting 2 23.3
2020-Aug-09 12:30 225 2 gusting 3 23.3
2020-Aug-09 12:25 203 3 gusting 3 23.3
2020-Aug-09 12:20 203 1 gusting 1 23.9
2020-Aug-09 12:15 225 1 gusting 1 23.9
2020-Aug-09 12:10 225 0 gusting 1 23.3
2020-Aug-09 12:05 248 3 gusting 3 23.3
2020-Aug-09 12:00 203 0 gusting 1 22.8
2020-Aug-09 11:55 248 2 gusting 2 22.2
2020-Aug-09 11:50 225 1 gusting 1 22.2
2020-Aug-09 11:45 248 3 gusting 3 22.2
2020-Aug-09 11:40 225 2 gusting 2 21.7
2020-Aug-09 11:35 270 2 gusting 2 21.7
2020-Aug-09 11:30 113 0 gusting 0 21.7
2020-Aug-09 11:25 180 2 gusting 2 21.7
2020-Aug-09 11:20 203 0 gusting 2 21.7
2020-Aug-09 11:15 270 1 gusting 1 21.1
2020-Aug-09 11:10 248 1 gusting 1 20.6
2020-Aug-09 11:05 225 2 gusting 2 20.6
2020-Aug-09 11:00 270 1 gusting 1 20.0
2020-Aug-09 10:55 203 2 gusting 2 20.0
2020-Aug-09 10:50 270 0 gusting 1 20.0
2020-Aug-09 10:45 158 20.0
2020-Aug-09 10:40 113 19.4
2020-Aug-09 10:35 135 19.4
2020-Aug-09 10:30 180 18.9
2020-Aug-09 10:25 180 18.9
2020-Aug-09 10:20 180 0 gusting 0 18.9
2020-Aug-09 10:15 225 18.3
2020-Aug-09 10:10 158 1 gusting 1 18.3
2020-Aug-09 10:05 158 18.3
2020-Aug-09 10:00 158 18.3
2020-Aug-09 09:55 180 18.3
2020-Aug-09 09:50 113 18.3
2020-Aug-09 09:45 135 17.8
2020-Aug-09 09:40 180 17.8
2020-Aug-09 09:35 180 17.8
2020-Aug-09 09:30 180 0 gusting 0 17.8
2020-Aug-09 09:25 180 17.8
2020-Aug-09 09:20 158 17.8
2020-Aug-09 09:15 158 17.8
2020-Aug-09 09:10 180 17.8
2020-Aug-09 09:05 158 17.8
2020-Aug-09 09:00 158 17.8
2020-Aug-09 08:55 180 17.8
2020-Aug-09 08:50 180 18.3
2020-Aug-09 08:45 135 0 gusting 0 17.8
2020-Aug-09 08:40 180 18.3
2020-Aug-09 08:30 158 0 gusting 0 18.3
2020-Aug-09 08:25 248 0 gusting 0 17.8
2020-Aug-09 08:20 248 0 gusting 1 17.8
2020-Aug-09 08:15 158 18.3
2020-Aug-09 08:10 248 0 gusting 0 18.3
2020-Aug-09 08:05 180 18.3
2020-Aug-09 08:00 225 18.3
2020-Aug-09 07:55 180 18.3
2020-Aug-09 07:50 158 18.3
2020-Aug-09 07:45 225 1 gusting 1 18.3
2020-Aug-09 07:40 225 0 gusting 0 18.3
2020-Aug-09 07:35 203 0 gusting 1 18.3
2020-Aug-09 07:30 158 18.3
2020-Aug-09 07:25 113 18.3
2020-Aug-09 07:20 203 18.3
2020-Aug-09 07:15 180 0 gusting 0 18.3
2020-Aug-09 07:10 225 18.3
2020-Aug-09 07:05 203 18.3
2020-Aug-09 07:00 270 1 gusting 1 18.9
2020-Aug-09 06:55 225 3 gusting 3 18.9
2020-Aug-09 06:50 180 2 gusting 2 18.9
2020-Aug-09 06:45 203 1 gusting 1 18.3
2020-Aug-09 06:40 203 1 gusting 2 18.3
2020-Aug-09 06:35 203 0 gusting 1 18.3
2020-Aug-09 06:30 180 1 gusting 1 18.3
2020-Aug-09 06:25 180 18.3
2020-Aug-09 06:20 225 1 gusting 1 18.3
2020-Aug-09 06:15 180 18.3
2020-Aug-09 06:10 180 0 gusting 1 18.3
2020-Aug-09 06:05 180 18.3
2020-Aug-09 06:00 225 18.3
2020-Aug-09 05:55 203 0 gusting 0 18.3
2020-Aug-09 05:50 135 18.3
2020-Aug-09 05:45 225 0 gusting 0 18.3
2020-Aug-09 05:40 225 0 gusting 0 18.3
2020-Aug-09 05:35 180 18.3
2020-Aug-09 05:30 203 18.3
2020-Aug-09 05:25 158 18.3
2020-Aug-09 05:20 180 18.3
2020-Aug-09 05:15 203 18.3
2020-Aug-09 05:10 180 18.3
2020-Aug-09 05:05 180 18.3
2020-Aug-09 05:00 180 18.3
2020-Aug-09 04:55 180 18.3
2020-Aug-09 04:50 248 18.3
2020-Aug-09 04:40 158 18.3
2020-Aug-09 04:35 113 18.3
2020-Aug-09 04:30 158 18.3
2020-Aug-09 04:25 158 18.9
2020-Aug-09 04:20 135 18.9
2020-Aug-09 04:15 113 18.9
2020-Aug-09 04:10 158 18.9
2020-Aug-09 04:05 158 18.9
2020-Aug-09 04:00 180 18.9
2020-Aug-09 03:55 113 18.9
2020-Aug-09 03:50 158 18.9
2020-Aug-09 03:45 180 18.9
2020-Aug-09 03:40 135 18.9
2020-Aug-09 03:35 113 19.4
2020-Aug-09 03:30 158 19.4
2020-Aug-09 03:25 180 19.4
2020-Aug-09 03:20 158 19.4
2020-Aug-09 03:15 113 20.0
2020-Aug-09 03:10 203 20.0
2020-Aug-09 03:05 180 20.0
2020-Aug-09 03:00 225 1 gusting 1 20.0
2020-Aug-09 02:55 158 20.0
2020-Aug-09 02:50 180 20.0
2020-Aug-09 02:45 203 20.0
2020-Aug-09 02:40 225 20.0
2020-Aug-09 02:35 180 20.6
2020-Aug-09 02:30 158 0 gusting 1 20.6
2020-Aug-09 02:25 113 20.6
2020-Aug-09 02:20 180 1 gusting 3 20.6
2020-Aug-09 02:15 180 20.6
2020-Aug-09 02:10 203 0 gusting 0 20.6
2020-Aug-09 02:05 203 0 gusting 2 20.6
2020-Aug-09 02:00 270 0 gusting 0 20.6
2020-Aug-09 01:55 135 0 gusting 0 20.6
2020-Aug-09 01:50 135 1 gusting 1 21.1
2020-Aug-09 01:45 203 1 gusting 2 21.1
2020-Aug-09 01:40 203 2 gusting 2 21.1
2020-Aug-09 01:35 203 0 gusting 0 21.1
2020-Aug-09 01:30 158 0 gusting 0 21.1
2020-Aug-09 01:25 248 1 gusting 1 21.1
2020-Aug-09 01:20 225 1 gusting 3 21.1
2020-Aug-09 01:15 270 1 gusting 1 21.1
2020-Aug-09 01:10 180 0 gusting 1 21.7
2020-Aug-09 01:05 113 1 gusting 2 21.7
2020-Aug-09 00:55 315 2 gusting 2 21.7
2020-Aug-09 00:50 113 1 gusting 1 21.7
2020-Aug-09 00:45 113 0 gusting 0 21.7
2020-Aug-09 00:40 135 1 gusting 1 22.2
2020-Aug-09 00:35 248 0 gusting 1 22.2
2020-Aug-09 00:30 113 1 gusting 2 22.2
2020-Aug-09 00:25 180 3 gusting 3 22.8
2020-Aug-09 00:20 225 1 gusting 2 22.8
2020-Aug-09 00:15 090 1 gusting 1 22.8
2020-Aug-09 00:10 135 0 gusting 1 22.8
2020-Aug-09 00:05 158 23.3
2020-Aug-09 00:00 135 3 gusting 3 23.3
2020-Aug-08 23:55 203 0 gusting 0 23.3
2020-Aug-08 23:50 270 3 gusting 3 23.9
2020-Aug-08 23:45 203 1 gusting 3 23.9
2020-Aug-08 23:40 203 1 gusting 3 23.9
2020-Aug-08 23:35 225 4 gusting 4 24.4
2020-Aug-08 23:30 225 1 gusting 2 25.0
2020-Aug-08 23:25 203 2 gusting 3 25.0
2020-Aug-08 23:20 225 3 gusting 3 25.6
2020-Aug-08 23:10 135 1 gusting 1 25.6
2020-Aug-08 23:05 203 5 gusting 5 25.6
2020-Aug-08 23:00 203 2 gusting 6 26.1
2020-Aug-08 22:55 225 6 gusting 7 26.7
2020-Aug-08 22:50 135 3 gusting 3 26.7
2020-Aug-08 22:45 203 3 gusting 3 27.2
2020-Aug-08 22:40 270 6 gusting 6 27.2
2020-Aug-08 22:30 158 1 gusting 3 28.3
2020-Aug-08 22:25 180 3 gusting 4 27.8
2020-Aug-08 22:20 28.3
2020-Aug-08 22:10 270 1 gusting 2 27.8
2020-Aug-08 22:05 225 1 gusting 2 27.8
2020-Aug-08 22:00 180 3 gusting 4 27.8
2020-Aug-08 21:55 113 28.3
2020-Aug-08 21:50 158 2 gusting 2 29.4
2020-Aug-08 21:45 158 0 gusting 1 30.0
2020-Aug-08 21:40 113 1 gusting 1 29.4
2020-Aug-08 21:35 113 0 gusting 0 29.4
2020-Aug-08 21:30 068 1 gusting 2 29.4
2020-Aug-08 21:25 090 1 gusting 3 28.9
2020-Aug-08 21:20 135 0 gusting 0 29.4
2020-Aug-08 21:15 225 29.4
2020-Aug-08 21:10 135 30.0
2020-Aug-08 21:05 045 1 gusting 1 30.0
2020-Aug-08 21:00 045 1 gusting 1 30.0
2020-Aug-08 20:55 068 1 gusting 2 29.4
2020-Aug-08 20:50 045 1 gusting 1 29.4
2020-Aug-08 20:45 113 1 gusting 1 28.9
2020-Aug-08 20:40 068 1 gusting 1 28.9
2020-Aug-08 20:35 045 1 gusting 1 28.9
2020-Aug-08 20:30 023 1 gusting 1 28.9
2020-Aug-08 20:25 113 0 gusting 0 28.9
2020-Aug-08 20:20 045 3 gusting 3 30.0
2020-Aug-08 20:15 158 1 gusting 1 30.0
2020-Aug-08 20:10 045 4 gusting 4 30.6
2020-Aug-08 20:05 023 3 gusting 3 30.6
2020-Aug-08 20:00 090 2 gusting 4 30.6
2020-Aug-08 19:55 113 2 gusting 3 30.6
2020-Aug-08 19:50 30.6
2020-Aug-08 19:45 113 3 gusting 3 30.6
2020-Aug-08 19:40 068 3 gusting 4 31.1
2020-Aug-08 19:35 090 1 gusting 1 31.1
2020-Aug-08 19:30 270 0 gusting 3 30.6
2020-Aug-08 19:25 113 1 gusting 1 30.6
2020-Aug-08 19:20 270 0 gusting 1 30.6
2020-Aug-08 19:15 225 3 gusting 3 30.6
2020-Aug-08 19:10 158 0 gusting 3 30.6
2020-Aug-08 19:05 158 0 gusting 2 30.6
2020-Aug-08 19:00 090 1 gusting 1 30.6